Cabool, Missouri
Current Conditions -  °F | °C
As of 8:53 AM on Sunday 23 Nov 2014 (Local Time) from KUNO Reporting Station
Light Rain Light Rain  
Wind Chill: 53°   Ceiling: 400
Heat Index: 53°   Visibility: 4mi
Dew Point: 51°   Wind: 10mph
Humidity: 93%   Direction: 150°SSE
Pressure: 29.63"   Gusts: NA
Location:  37.12°N, 92.1°W
Report Text: KUNO 231453Z AUTO 15009KT 4SM -RA BR OVC004 12/11 A2963 RMK AO2 SLP029 P0003 60043 T01170106 56023
Loading
Personal Weather Stations






























Interactive Weather Map New forecast layout! Learn more

10-Day Weather Forecast

Advertisements
Track Severe Weather on mobile